Time;durP1;ratioP1;P1;durP2;ratioP2;P2;SDS_P1;SDS_P2;PMS_P1;PMS_P2;Temp;Humidity;BMP_temperature;BMP_pressure;BME280_temperature;BME280_humidity;BME280_pressure;Samples;Min_cycle;Max_cycle;Signal;HPM_P1;HPM_P2
2023/04/12 00:02:19;;;;;;;;;;;8.80;99.90;;;;;;5016564;28;19936;-92
2023/04/12 00:04:54;;;;;;;;;;;8.80;99.90;;;;;;5008759;28;20265;-89
2023/04/12 00:07:21;;;;;;;;;;;8.80;99.90;;;;;;5009689;28;19925;-90
2023/04/12 00:09:48;;;;;;;;;;;8.70;99.90;;;;;;5021039;28;19935;-89
2023/04/12 00:12:16;;;;;;;;;;;8.80;99.90;;;;;;5009084;28;19936;-89
2023/04/12 00:14:44;;;;;;;;;;;8.70;99.90;;;;;;5027662;28;19932;-90
2023/04/12 00:17:11;;;;;;;;;;;8.70;99.90;;;;;;5005033;28;19926;-89
2023/04/12 00:19:40;;;;;;;;;;;8.70;99.90;;;;;;5004507;28;19931;-89
2023/04/12 00:22:07;;;;;;;;;;;8.70;99.90;;;;;;5001005;28;19926;-89
2023/04/12 00:24:34;;;;;;;;;;;8.70;99.90;;;;;;5009342;28;19932;-89
2023/04/12 00:27:01;;;;;;;;;;;8.70;99.90;;;;;;5026842;28;19932;-89
2023/04/12 00:29:28;;;;;;;;;;;8.70;99.90;;;;;;5035745;28;19933;-87
2023/04/12 00:31:56;;;;;;;;;;;8.70;99.90;;;;;;5006083;28;19932;-89
2023/04/12 00:34:23;;;;;;;;;;;8.70;99.90;;;;;;5008152;28;19967;-89
2023/04/12 00:36:50;;;;;;;;;;;8.70;99.90;;;;;;5016190;28;19990;-90
2023/04/12 00:39:17;;;;;;;;;;;8.70;99.90;;;;;;5008618;28;19928;-89
2023/04/12 00:41:43;;;;;;;;;;;8.70;99.90;;;;;;5008667;28;19945;-91
2023/04/12 00:44:10;;;;;;;;;;;8.70;99.90;;;;;;5033867;28;20012;-89
2023/04/12 00:46:37;;;;;;;;;;;8.70;99.90;;;;;;5013126;28;20020;-89
2023/04/12 00:49:07;;;;;;;;;;;8.70;99.90;;;;;;5030884;28;19999;-89
2023/04/12 00:51:34;;;;;;;;;;;8.70;99.90;;;;;;5011823;28;19940;-89
2023/04/12 00:54:01;;;;;;;;;;;8.70;99.90;;;;;;5010109;28;19929;-89
2023/04/12 00:56:28;;;;;;;;;;;8.70;99.90;;;;;;5029560;28;19931;-90
2023/04/12 00:58:55;;;;;;;;;;;8.60;99.90;;;;;;5026483;28;19956;-89
2023/04/12 01:01:22;;;;;;;;;;;8.60;99.90;;;;;;5008549;28;19975;-91
2023/04/12 01:03:49;;;;;;;;;;;8.60;99.90;;;;;;5014244;28;19960;-89
2023/04/12 01:06:25;;;;;;;;;;;8.60;99.90;;;;;;5024824;28;19933;-90
2023/04/12 01:08:56;;;;;;;;;;;8.60;99.90;;;;;;5012966;28;19925;-89
2023/04/12 01:11:29;;;;;;;;;;;8.60;99.90;;;;;;5030352;28;19925;-89
2023/04/12 01:14:06;;;;;;;;;;;8.60;99.90;;;;;;5011118;28;19932;-89
2023/04/12 01:16:39;;;;;;;;;;;8.60;99.90;;;;;;5029281;28;20015;-90
2023/04/12 01:19:21;;;;;;;;;;;8.60;99.90;;;;;;5012934;28;20383;-89
2023/04/12 01:21:54;;;;;;;;;;;8.60;99.90;;;;;;5017240;28;19925;-89
2023/04/12 01:24:27;;;;;;;;;;;8.60;99.90;;;;;;5026083;28;20453;-92
2023/04/12 01:26:56;;;;;;;;;;;8.60;99.90;;;;;;5030662;28;20308;-90
2023/04/12 01:29:27;;;;;;;;;;;8.60;99.90;;;;;;5009621;28;20056;-89
2023/04/12 01:31:57;;;;;;;;;;;8.60;99.90;;;;;;4999335;28;19932;-88
2023/04/12 01:34:26;;;;;;;;;;;8.60;99.90;;;;;;5027447;28;19929;-87
2023/04/12 01:36:54;;;;;;;;;;;8.60;99.90;;;;;;5023309;28;19964;-89
2023/04/12 01:39:21;;;;;;;;;;;8.60;99.90;;;;;;5007815;28;19936;-91
2023/04/12 01:41:49;;;;;;;;;;;8.50;99.90;;;;;;5009326;28;19936;-90
2023/04/12 01:44:16;;;;;;;;;;;8.50;99.90;;;;;;5015288;28;19933;-90
2023/04/12 01:46:47;;;;;;;;;;;8.50;99.90;;;;;;5014321;28;20417;-88
2023/04/12 01:49:15;;;;;;;;;;;8.50;99.90;;;;;;5015220;28;19969;-89
2023/04/12 01:51:49;;;;;;;;;;;8.50;99.90;;;;;;5008817;28;19999;-89
2023/04/12 01:54:19;;;;;;;;;;;8.50;99.90;;;;;;5026781;28;20019;-88
2023/04/12 01:56:47;;;;;;;;;;;8.50;99.90;;;;;;4999930;28;20382;-89
2023/04/12 01:59:14;;;;;;;;;;;8.50;99.90;;;;;;5009152;28;19925;-90
2023/04/12 02:01:42;;;;;;;;;;;8.50;99.90;;;;;;5023995;28;19933;-89
2023/04/12 02:04:11;;;;;;;;;;;8.40;99.90;;;;;;5021082;28;20387;-89
2023/04/12 02:06:39;;;;;;;;;;;8.50;99.90;;;;;;5005730;28;20443;-92
2023/04/12 02:09:06;;;;;;;;;;;8.50;99.90;;;;;;5030048;28;19925;-92
2023/04/12 02:11:35;;;;;;;;;;;8.50;99.90;;;;;;5012401;28;19930;-89
2023/04/12 02:14:02;;;;;;;;;;;8.50;99.90;;;;;;5013762;28;19933;-91
2023/04/12 02:16:33;;;;;;;;;;;8.40;99.90;;;;;;5012662;22;20015;-81
2023/04/12 02:19:00;;;;;;;;;;;8.40;99.90;;;;;;4971977;28;20081;-81
2023/04/12 02:21:29;;;;;;;;;;;8.40;99.90;;;;;;5009482;28;20384;-81
2023/04/12 02:23:55;;;;;;;;;;;8.40;99.90;;;;;;5010757;28;20449;-81
2023/04/12 02:26:22;;;;;;;;;;;8.50;99.90;;;;;;5005557;28;20040;-80
2023/04/12 02:28:51;;;;;;;;;;;8.40;99.90;;;;;;5024091;28;20325;-81
2023/04/12 02:31:18;;;;;;;;;;;8.40;99.90;;;;;;5010922;28;19932;-81
2023/04/12 02:33:47;;;;;;;;;;;8.40;99.90;;;;;;5012761;28;19941;-80
2023/04/12 02:36:14;;;;;;;;;;;8.40;99.90;;;;;;5008246;28;19929;-81
2023/04/12 02:38:42;;;;;;;;;;;8.40;99.90;;;;;;5007468;28;19933;-81
2023/04/12 02:41:09;;;;;;;;;;;8.40;99.90;;;;;;5008769;28;19948;-81
2023/04/12 02:43:36;;;;;;;;;;;8.40;99.90;;;;;;5006079;28;19930;-81
2023/04/12 02:46:08;;;;;;;;;;;8.40;99.90;;;;;;5021246;28;19926;-81
2023/04/12 02:48:42;;;;;;;;;;;8.40;99.90;;;;;;5021468;28;20021;-80
2023/04/12 02:51:10;;;;;;;;;;;8.40;99.90;;;;;;5008093;28;20012;-82
2023/04/12 02:53:38;;;;;;;;;;;8.40;99.90;;;;;;5010508;28;20045;-81
2023/04/12 02:56:17;;;;;;;;;;;8.40;99.90;;;;;;5006973;28;19929;-81
2023/04/12 02:58:45;;;;;;;;;;;8.30;99.90;;;;;;5021672;28;20488;-80
2023/04/12 03:01:19;;;;;;;;;;;8.30;99.90;;;;;;5003516;28;19926;-81
2023/04/12 03:04:06;;;;;;;;;;;8.30;99.90;;;;;;5010303;28;20295;-82
2023/04/12 03:06:52;;;;;;;;;;;8.30;99.90;;;;;;5010423;28;19925;-81
2023/04/12 03:09:27;;;;;;;;;;;8.30;99.90;;;;;;5009152;28;20032;-80
2023/04/12 03:11:57;;;;;;;;;;;8.40;99.90;;;;;;5020705;28;19980;-81
2023/04/12 03:14:24;;;;;;;;;;;8.30;99.90;;;;;;5005310;28;19932;-81
2023/04/12 03:16:52;;;;;;;;;;;8.30;99.90;;;;;;5006157;28;19953;-80
2023/04/12 03:19:19;;;;;;;;;;;8.30;99.90;;;;;;5008342;28;20012;-81
2023/04/12 03:21:52;;;;;;;;;;;8.30;99.90;;;;;;5008287;28;19929;-81
2023/04/12 03:24:19;;;;;;;;;;;8.30;99.90;;;;;;5011887;28;19925;-81
2023/04/12 03:26:46;;;;;;;;;;;8.30;99.90;;;;;;5003061;28;19925;-82
2023/04/12 03:29:20;;;;;;;;;;;8.30;99.90;;;;;;5004616;28;19971;-82
2023/04/12 03:31:49;;;;;;;;;;;8.30;99.90;;;;;;5009931;28;20358;-81
2023/04/12 03:34:16;;;;;;;;;;;8.30;99.90;;;;;;5007350;28;19926;-81
2023/04/12 03:36:48;;;;;;;;;;;8.30;99.90;;;;;;5006192;28;19933;-82
2023/04/12 03:39:21;;;;;;;;;;;8.30;99.90;;;;;;5010239;28;19926;-81
2023/04/12 03:41:52;;;;;;;;;;;8.30;99.90;;;;;;5010622;28;19926;-81
2023/04/12 03:44:24;;;;;;;;;;;8.30;99.90;;;;;;5007018;28;19975;-80
2023/04/12 03:46:53;;;;;;;;;;;8.30;99.90;;;;;;5008822;28;19925;-80
2023/04/12 03:49:21;;;;;;;;;;;8.20;99.90;;;;;;5011996;28;19952;-81
2023/04/12 03:51:49;;;;;;;;;;;8.30;99.90;;;;;;5010620;28;19930;-79
2023/04/12 03:54:16;;;;;;;;;;;8.30;99.90;;;;;;5005199;28;19925;-83
2023/04/12 03:56:57;;;;;;;;;;;8.20;99.90;;;;;;5010656;28;19933;-80
2023/04/12 03:59:32;;;;;;;;;;;8.20;99.90;;;;;;5013034;28;20153;-81
2023/04/12 04:02:00;;;;;;;;;;;8.20;99.90;;;;;;5008885;28;20347;-82
2023/04/12 04:04:29;;;;;;;;;;;8.20;99.90;;;;;;5011134;28;19936;-81
2023/04/12 04:07:00;;;;;;;;;;;8.20;99.90;;;;;;5010898;28;20330;-84
2023/04/12 04:09:29;;;;;;;;;;;8.20;99.90;;;;;;5013263;28;20391;-81
2023/04/12 04:11:56;;;;;;;;;;;8.20;99.90;;;;;;5010698;28;19925;-82
2023/04/12 04:14:24;;;;;;;;;;;8.20;99.90;;;;;;5026575;28;20178;-81
2023/04/12 04:16:54;;;;;;;;;;;8.20;99.90;;;;;;5020491;28;19933;-81
2023/04/12 04:19:21;;;;;;;;;;;8.20;99.90;;;;;;5011880;28;20376;-81
2023/04/12 04:21:49;;;;;;;;;;;8.20;99.90;;;;;;5011401;28;19933;-81
2023/04/12 04:24:17;;;;;;;;;;;8.20;99.90;;;;;;5009203;28;19925;-82
2023/04/12 04:26:49;;;;;;;;;;;8.20;99.90;;;;;;5012840;28;20024;-81
2023/04/12 04:29:27;;;;;;;;;;;8.20;99.90;;;;;;5009650;28;20332;-81
2023/04/12 04:31:56;;;;;;;;;;;8.20;99.90;;;;;;5015117;28;19936;-83
2023/04/12 04:34:24;;;;;;;;;;;8.20;99.90;;;;;;5006626;28;19975;-81
2023/04/12 04:36:56;;;;;;;;;;;8.20;99.90;;;;;;5010153;28;19936;-81
2023/04/12 04:39:27;;;;;;;;;;;8.20;99.90;;;;;;5013523;28;19925;-81
2023/04/12 04:41:56;;;;;;;;;;;8.20;99.90;;;;;;5008942;28;19992;-81
2023/04/12 04:45:01;;;;;;;;;;;8.20;99.90;;;;;;4990438;28;20491;-81
2023/04/12 04:47:36;;;;;;;;;;;8.20;99.90;;;;;;5013181;28;19926;-81
2023/04/12 04:50:03;;;;;;;;;;;8.20;99.90;;;;;;5021610;28;19984;-81
2023/04/12 04:52:30;;;;;;;;;;;8.20;99.90;;;;;;5013973;28;19972;-81
2023/04/12 04:55:02;;;;;;;;;;;8.10;99.90;;;;;;5019653;28;19925;-81
2023/04/12 04:57:35;;;;;;;;;;;8.20;99.90;;;;;;5013284;28;19925;-81
2023/04/12 05:00:09;;;;;;;;;;;8.10;99.90;;;;;;5014049;28;20331;-81
2023/04/12 05:02:38;;;;;;;;;;;8.10;99.90;;;;;;5008872;28;19937;-81
2023/04/12 05:05:07;;;;;;;;;;;8.10;99.90;;;;;;5024287;28;20300;-81
2023/04/12 05:07:35;;;;;;;;;;;8.10;99.90;;;;;;5011490;28;19926;-81
2023/04/12 05:10:02;;;;;;;;;;;8.10;99.90;;;;;;5012480;28;20070;-82
2023/04/12 05:12:31;;;;;;;;;;;8.10;99.90;;;;;;5012171;28;20027;-81
2023/04/12 05:14:58;;;;;;;;;;;8.10;99.90;;;;;;5010926;28;19925;-81
2023/04/12 05:17:25;;;;;;;;;;;8.10;99.90;;;;;;5010108;28;20458;-81
2023/04/12 05:19:53;;;;;;;;;;;8.10;99.90;;;;;;5010806;28;19926;-81
2023/04/12 05:22:20;;;;;;;;;;;8.10;99.90;;;;;;5008962;28;19980;-81
2023/04/12 05:24:47;;;;;;;;;;;8.10;99.90;;;;;;5021860;28;20466;-81
2023/04/12 05:27:15;;;;;;;;;;;8.10;99.90;;;;;;5011895;28;19925;-80
2023/04/12 05:29:44;;;;;;;;;;;8.10;99.90;;;;;;5011165;28;19929;-81
2023/04/12 05:32:12;;;;;;;;;;;8.10;99.90;;;;;;5008312;28;20008;-81
2023/04/12 05:34:38;;;;;;;;;;;8.00;99.90;;;;;;5003629;28;19937;-81
2023/04/12 05:37:07;;;;;;;;;;;8.10;99.90;;;;;;5019253;28;19941;-81
2023/04/12 05:39:37;;;;;;;;;;;8.00;99.90;;;;;;5012363;28;19938;-81
2023/04/12 05:42:06;;;;;;;;;;;8.10;99.90;;;;;;5009345;28;20440;-83
2023/04/12 05:44:34;;;;;;;;;;;8.10;99.90;;;;;;5011338;28;20020;-81
2023/04/12 05:47:01;;;;;;;;;;;8.00;99.90;;;;;;5012981;28;19975;-81
2023/04/12 05:49:28;;;;;;;;;;;8.10;99.90;;;;;;5012151;28;19925;-81
2023/04/12 05:51:55;;;;;;;;;;;8.10;99.90;;;;;;5021287;28;20012;-81
2023/04/12 05:54:24;;;;;;;;;;;8.10;99.90;;;;;;5012805;28;19929;-80
2023/04/12 05:56:53;;;;;;;;;;;8.00;99.90;;;;;;5011595;28;19959;-80
2023/04/12 05:59:20;;;;;;;;;;;8.00;99.90;;;;;;5026190;28;19936;-81
2023/04/12 06:01:46;;;;;;;;;;;8.00;99.90;;;;;;5011816;28;20035;-81
2023/04/12 06:04:14;;;;;;;;;;;8.00;99.90;;;;;;5012786;28;19925;-81
2023/04/12 06:06:42;;;;;;;;;;;8.00;99.90;;;;;;5010554;28;20004;-81
2023/04/12 06:09:09;;;;;;;;;;;8.00;99.90;;;;;;5008834;28;19933;-81
2023/04/12 06:11:38;;;;;;;;;;;8.00;99.90;;;;;;5017484;28;19956;-82
2023/04/12 06:14:06;;;;;;;;;;;8.00;99.90;;;;;;5009166;28;19987;-81
2023/04/12 06:16:33;;;;;;;;;;;8.00;99.90;;;;;;5009810;28;19932;-81
2023/04/12 06:18:59;;;;;;;;;;;8.00;99.90;;;;;;5025976;28;19957;-82
2023/04/12 06:21:27;;;;;;;;;;;8.00;99.90;;;;;;5019482;28;19926;-81
2023/04/12 06:23:54;;;;;;;;;;;8.00;99.90;;;;;;5011823;28;19925;-81
2023/04/12 06:26:21;;;;;;;;;;;8.00;99.90;;;;;;5008556;28;19979;-82
2023/04/12 06:28:49;;;;;;;;;;;8.00;99.90;;;;;;5008427;28;19933;-81
2023/04/12 06:31:16;;;;;;;;;;;8.00;99.90;;;;;;5009894;28;20633;-81
2023/04/12 06:33:43;;;;;;;;;;;8.00;99.90;;;;;;5011171;28;20012;-81
2023/04/12 06:36:11;;;;;;;;;;;8.00;99.90;;;;;;5009189;28;19968;-83
2023/04/12 06:38:39;;;;;;;;;;;8.00;99.90;;;;;;5011439;28;19929;-81
2023/04/12 06:41:06;;;;;;;;;;;8.00;99.90;;;;;;5011260;28;19969;-81
2023/04/12 06:43:33;;;;;;;;;;;7.90;99.90;;;;;;5005094;28;20311;-81
2023/04/12 06:46:02;;;;;;;;;;;7.90;99.90;;;;;;5009665;28;20399;-81
2023/04/12 06:48:29;;;;;;;;;;;8.00;99.90;;;;;;5009487;28;19930;-81
2023/04/12 06:50:56;;;;;;;;;;;7.90;99.90;;;;;;5010046;28;20472;-81
2023/04/12 06:53:24;;;;;;;;;;;8.00;99.90;;;;;;5004652;28;19925;-82
2023/04/12 06:55:52;;;;;;;;;;;8.00;99.90;;;;;;5007360;28;19987;-82
2023/04/12 06:58:19;;;;;;;;;;;8.00;99.90;;;;;;5008420;28;19964;-81
2023/04/12 07:00:46;;;;;;;;;;;8.00;99.90;;;;;;5008907;28;19968;-81
2023/04/12 07:03:14;;;;;;;;;;;8.00;99.90;;;;;;5001797;28;19932;-81
2023/04/12 07:05:41;;;;;;;;;;;7.90;99.90;;;;;;5008933;28;20411;-81
2023/04/12 07:08:09;;;;;;;;;;;7.90;99.90;;;;;;5006364;28;19933;-82
2023/04/12 07:10:36;;;;;;;;;;;7.90;99.90;;;;;;5008086;28;19938;-81
2023/04/12 07:13:05;;;;;;;;;;;8.00;99.90;;;;;;5006035;28;19996;-80
2023/04/12 07:15:33;;;;;;;;;;;8.00;99.90;;;;;;5012835;28;19933;-81
2023/04/12 07:18:00;;;;;;;;;;;7.90;99.90;;;;;;5013621;28;19983;-82
2023/04/12 07:20:28;;;;;;;;;;;7.90;99.90;;;;;;5011654;28;20024;-82
2023/04/12 07:22:55;;;;;;;;;;;7.90;99.90;;;;;;5007934;28;19941;-80
2023/04/12 07:25:22;;;;;;;;;;;7.90;99.90;;;;;;5010409;28;19933;-80
2023/04/12 07:27:48;;;;;;;;;;;7.90;99.90;;;;;;5011447;28;19965;-81
2023/04/12 07:30:15;;;;;;;;;;;7.90;99.90;;;;;;5001930;28;20365;-81
2023/04/12 07:32:42;;;;;;;;;;;7.90;99.90;;;;;;5008848;28;19929;-80
2023/04/12 07:35:09;;;;;;;;;;;7.90;99.90;;;;;;5010573;28;19932;-80
2023/04/12 07:37:38;;;;;;;;;;;7.90;99.90;;;;;;5012620;28;19929;-80
2023/04/12 07:40:05;;;;;;;;;;;7.90;99.90;;;;;;5007666;28;19933;-81
2023/04/12 07:42:32;;;;;;;;;;;7.90;99.90;;;;;;5010639;28;19929;-81
2023/04/12 07:44:59;;;;;;;;;;;7.90;99.90;;;;;;5012353;28;19987;-81
2023/04/12 07:47:26;;;;;;;;;;;7.90;99.90;;;;;;5009366;28;19972;-80
2023/04/12 07:49:54;;;;;;;;;;;7.90;99.90;;;;;;5010594;28;19947;-81
2023/04/12 07:52:20;;;;;;;;;;;7.90;99.90;;;;;;5012416;28;19925;-81
2023/04/12 07:54:48;;;;;;;;;;;7.90;99.90;;;;;;5009139;28;19929;-81
2023/04/12 07:57:15;;;;;;;;;;;7.90;99.90;;;;;;5008465;28;20675;-80
2023/04/12 07:59:42;;;;;;;;;;;7.90;99.90;;;;;;5008696;28;19973;-80
2023/04/12 08:02:09;;;;;;;;;;;7.90;99.90;;;;;;5012691;28;19936;-80
2023/04/12 08:04:37;;;;;;;;;;;7.90;99.90;;;;;;5013663;28;19988;-81
2023/04/12 08:07:03;;;;;;;;;;;7.90;99.90;;;;;;5010367;28;19925;-80
2023/04/12 08:09:30;;;;;;;;;;;7.90;99.90;;;;;;5008836;28;19925;-79
2023/04/12 08:11:58;;;;;;;;;;;7.90;99.90;;;;;;5011886;28;20450;-82
2023/04/12 08:14:25;;;;;;;;;;;7.90;99.90;;;;;;5012299;28;20391;-81
2023/04/12 08:16:52;;;;;;;;;;;8.00;99.90;;;;;;5010102;28;19914;-80
2023/04/12 08:19:20;;;;;;;;;;;8.00;99.90;;;;;;5013191;28;20328;-80
2023/04/12 08:21:47;;;;;;;;;;;8.00;99.90;;;;;;5021330;23;19940;-75
2023/04/12 08:24:13;;;;;;;;;;;8.00;99.90;;;;;;4991383;28;19933;-75
2023/04/12 08:26:42;;;;;;;;;;;8.00;99.90;;;;;;5043811;28;20272;-75
2023/04/12 08:29:11;;;;;;;;;;;8.00;99.90;;;;;;5004346;28;19991;-75
2023/04/12 08:31:38;;;;;;;;;;;8.00;99.90;;;;;;5019196;28;20019;-75
2023/04/12 08:34:05;;;;;;;;;;;8.00;99.90;;;;;;5030801;28;19937;-75
2023/04/12 08:36:32;;;;;;;;;;;8.00;99.90;;;;;;5006783;28;19929;-72
2023/04/12 08:38:59;;;;;;;;;;;8.00;99.90;;;;;;5025148;28;20390;-72
2023/04/12 08:41:26;;;;;;;;;;;8.00;99.90;;;;;;5030239;28;19961;-72
2023/04/12 08:43:54;;;;;;;;;;;8.00;99.90;;;;;;5031625;28;19978;-72
2023/04/12 08:46:22;;;;;;;;;;;8.00;99.90;;;;;;5019094;28;19929;-76
2023/04/12 08:48:49;;;;;;;;;;;8.00;99.90;;;;;;5014416;28;19931;-75
2023/04/12 08:51:17;;;;;;;;;;;8.00;99.90;;;;;;5029771;28;20407;-75
2023/04/12 08:53:44;;;;;;;;;;;8.10;99.90;;;;;;5027809;28;19936;-73
2023/04/12 08:56:12;;;;;;;;;;;8.00;99.90;;;;;;5028024;28;20014;-72
2023/04/12 08:58:39;;;;;;;;;;;8.10;99.90;;;;;;5030447;28;20020;-73
2023/04/12 09:01:08;;;;;;;;;;;8.10;99.90;;;;;;5029483;28;19933;-73
2023/04/12 09:03:37;;;;;;;;;;;8.10;99.90;;;;;;5015391;28;19925;-73
2023/04/12 09:06:04;;;;;;;;;;;8.10;99.90;;;;;;5025057;28;19945;-73
2023/04/12 09:08:30;;;;;;;;;;;8.10;99.90;;;;;;5036581;28;19933;-75
2023/04/12 09:10:58;;;;;;;;;;;8.10;99.90;;;;;;5036288;28;19968;-73
2023/04/12 09:13:31;;;;;;;;;;;8.20;99.90;;;;;;5039452;28;19925;-75
2023/04/12 09:15:58;;;;;;;;;;;8.20;99.90;;;;;;5027060;28;19971;-73
2023/04/12 09:18:26;;;;;;;;;;;8.20;99.90;;;;;;5033401;28;19940;-72
2023/04/12 09:21:05;;;;;;;;;;;8.20;99.90;;;;;;5032959;28;19925;-77
2023/04/12 09:23:32;;;;;;;;;;;8.20;99.90;;;;;;5025476;28;20383;-73
2023/04/12 09:25:59;;;;;;;;;;;8.30;99.90;;;;;;5009137;28;20090;-73
2023/04/12 09:28:26;;;;;;;;;;;8.30;99.90;;;;;;5032715;28;20116;-73
2023/04/12 09:30:53;;;;;;;;;;;8.30;99.90;;;;;;5027831;28;19925;-74
2023/04/12 09:33:20;;;;;;;;;;;8.30;99.90;;;;;;5010741;28;19979;-73
2023/04/12 09:35:47;;;;;;;;;;;8.40;99.90;;;;;;5025327;28;20439;-73
2023/04/12 09:38:15;;;;;;;;;;;8.40;99.90;;;;;;5031048;28;19965;-74
2023/04/12 09:40:42;;;;;;;;;;;8.40;99.90;;;;;;5028091;28;19925;-73
2023/04/12 09:43:09;;;;;;;;;;;8.40;99.90;;;;;;5027684;28;20004;-73
2023/04/12 09:45:37;;;;;;;;;;;8.40;99.90;;;;;;5032534;28;19968;-73
2023/04/12 09:48:04;;;;;;;;;;;8.50;99.90;;;;;;5025834;28;19979;-73
2023/04/12 09:50:32;;;;;;;;;;;8.50;99.90;;;;;;5002477;28;19964;-73
2023/04/12 09:52:59;;;;;;;;;;;8.60;99.90;;;;;;5029065;28;20419;-73
2023/04/12 09:55:29;;;;;;;;;;;8.60;99.90;;;;;;5014218;28;19932;-75
2023/04/12 09:57:56;;;;;;;;;;;8.60;99.90;;;;;;5033649;28;19971;-73
2023/04/12 10:00:25;;;;;;;;;;;8.60;99.90;;;;;;5006940;28;19929;-73
2023/04/12 10:02:53;;;;;;;;;;;8.70;99.90;;;;;;5037979;28;19925;-72
2023/04/12 10:05:20;;;;;;;;;;;8.70;99.90;;;;;;5026401;28;20059;-73
2023/04/12 10:07:47;;;;;;;;;;;8.70;99.90;;;;;;5017835;28;20687;-73
2023/04/12 10:10:15;;;;;;;;;;;8.80;99.90;;;;;;5012961;28;19999;-73
2023/04/12 10:12:45;;;;;;;;;;;8.80;99.90;;;;;;5026591;28;19928;-74
2023/04/12 10:15:14;;;;;;;;;;;8.80;99.90;;;;;;5015732;28;19929;-74
2023/04/12 10:17:41;;;;;;;;;;;8.80;99.90;;;;;;5022313;28;20019;-73
2023/04/12 10:20:09;;;;;;;;;;;8.80;99.90;;;;;;5032276;28;20016;-74
2023/04/12 10:22:36;;;;;;;;;;;8.90;99.90;;;;;;5025213;28;20035;-73
2023/04/12 10:25:02;;;;;;;;;;;8.90;99.90;;;;;;5024945;28;19925;-73
2023/04/12 10:27:29;;;;;;;;;;;8.90;99.90;;;;;;5025120;28;19929;-73
2023/04/12 10:30:18;;;;;;;;;;;8.90;99.90;;;;;;5026847;28;20413;-74
2023/04/12 10:32:45;;;;;;;;;;;8.90;99.90;;;;;;5029989;28;19936;-73
2023/04/12 10:35:12;;;;;;;;;;;8.90;99.90;;;;;;5020809;28;20407;-74
2023/04/12 10:37:57;;;;;;;;;;;9.00;99.90;;;;;;5025376;28;19925;-74
2023/04/12 10:40:23;;;;;;;;;;;9.00;99.90;;;;;;5008831;28;19928;-74
2023/04/12 10:43:11;;;;;;;;;;;9.00;99.90;;;;;;5028861;28;20014;-74
2023/04/12 10:45:40;;;;;;;;;;;9.10;99.90;;;;;;5027851;28;20374;-73
2023/04/12 10:48:06;;;;;;;;;;;9.10;99.90;;;;;;5023023;28;19941;-73
2023/04/12 10:50:34;;;;;;;;;;;9.20;99.90;;;;;;5030777;28;20311;-73
2023/04/12 10:53:23;;;;;;;;;;;9.20;99.90;;;;;;5008192;28;19925;-74
2023/04/12 10:55:50;;;;;;;;;;;9.20;99.90;;;;;;5032939;28;19932;-74
2023/04/12 10:58:43;;;;;;;;;;;9.20;99.90;;;;;;5009433;28;19964;-73
2023/04/12 11:01:11;;;;;;;;;;;9.30;99.90;;;;;;5017615;28;19953;-73
2023/04/12 11:03:58;;;;;;;;;;;9.30;99.90;;;;;;5028855;28;19925;-74
2023/04/12 11:06:39;;;;;;;;;;;9.30;99.90;;;;;;5017020;28;20134;-74
2023/04/12 11:09:25;;;;;;;;;;;9.30;99.90;;;;;;5027790;28;20776;-74
2023/04/12 11:11:56;;;;;;;;;;;9.40;99.90;;;;;;5025542;28;20384;-74
2023/04/12 11:14:31;;;;;;;;;;;9.40;99.90;;;;;;5027635;28;20008;-73
2023/04/12 11:17:12;;;;;;;;;;;9.40;99.90;;;;;;5029180;28;20144;-74
2023/04/12 11:19:41;;;;;;;;;;;9.40;99.90;;;;;;5030393;28;20339;-74
2023/04/12 11:22:09;;;;;;;;;;;9.50;99.90;;;;;;5013394;28;20346;-73
2023/04/12 11:24:37;;;;;;;;;;;9.60;99.90;;;;;;5003206;28;19949;-74
2023/04/12 11:27:04;;;;;;;;;;;9.60;99.90;;;;;;5029740;28;19925;-74
2023/04/12 11:29:33;;;;;;;;;;;9.60;99.90;;;;;;5021715;28;22127;-74
2023/04/12 11:32:02;;;;;;;;;;;9.60;99.90;;;;;;5020156;28;19935;-74
2023/04/12 11:34:32;;;;;;;;;;;9.60;99.90;;;;;;5024234;28;19935;-74
2023/04/12 11:37:03;;;;;;;;;;;9.70;99.90;;;;;;5026503;28;19967;-74
2023/04/12 11:39:30;;;;;;;;;;;9.70;99.90;;;;;;5014127;28;19928;-74
2023/04/12 11:41:56;;;;;;;;;;;9.80;99.90;;;;;;5010382;28;20462;-74
2023/04/12 11:44:23;;;;;;;;;;;9.80;99.90;;;;;;5029645;28;19932;-74
2023/04/12 11:46:51;;;;;;;;;;;9.80;99.90;;;;;;5024291;28;20098;-75
2023/04/12 11:49:19;;;;;;;;;;;9.80;99.90;;;;;;5002378;28;19925;-74
2023/04/12 11:51:46;;;;;;;;;;;9.90;99.90;;;;;;5023084;28;20358;-75
2023/04/12 11:54:15;;;;;;;;;;;9.90;99.90;;;;;;5028950;28;19971;-75
2023/04/12 11:56:45;;;;;;;;;;;9.90;99.90;;;;;;5015539;28;19940;-76
2023/04/12 11:59:11;;;;;;;;;;;10.00;99.90;;;;;;5020781;28;20304;-76
2023/04/12 12:01:39;;;;;;;;;;;10.10;99.90;;;;;;5025881;28;19924;-74
2023/04/12 12:04:06;;;;;;;;;;;10.10;99.90;;;;;;5007188;28;19937;-74
2023/04/12 12:06:33;;;;;;;;;;;10.20;99.90;;;;;;5009424;28;19976;-73
2023/04/12 12:09:00;;;;;;;;;;;10.20;99.90;;;;;;5025335;28;20348;-74
2023/04/12 12:11:28;;;;;;;;;;;10.30;99.90;;;;;;5013134;28;20419;-74
2023/04/12 12:13:55;;;;;;;;;;;10.30;99.90;;;;;;5021915;28;20536;-75
2023/04/12 12:16:24;;;;;;;;;;;10.40;99.90;;;;;;5018571;28;19933;-74
2023/04/12 12:18:51;;;;;;;;;;;10.40;99.90;;;;;;5011962;28;19963;-74
2023/04/12 12:21:18;;;;;;;;;;;10.40;99.90;;;;;;5026576;28;20627;-74
2023/04/12 12:23:45;;;;;;;;;;;10.50;99.90;;;;;;5028238;28;19925;-74
2023/04/12 12:26:19;;;;;;;;;;;10.50;99.90;;;;;;5037432;28;20424;-74
2023/04/12 12:28:51;;;;;;;;;;;10.50;99.90;;;;;;5024426;28;19932;-75
2023/04/12 12:31:18;;;;;;;;;;;10.60;99.90;;;;;;5027421;28;20276;-75
2023/04/12 12:33:45;;;;;;;;;;;10.60;99.90;;;;;;5025958;28;19925;-74
2023/04/12 12:36:13;;;;;;;;;;;10.60;99.90;;;;;;5040515;28;19941;-74
2023/04/12 12:38:41;;;;;;;;;;;10.60;99.90;;;;;;5029089;28;19929;-74
2023/04/12 12:41:15;;;;;;;;;;;10.70;99.90;;;;;;5008708;28;19925;-74
2023/04/12 12:43:44;;;;;;;;;;;10.70;99.90;;;;;;5033757;28;19925;-74
2023/04/12 12:46:13;;;;;;;;;;;10.70;99.90;;;;;;5014704;28;19929;-74
2023/04/12 12:48:40;;;;;;;;;;;10.80;99.90;;;;;;5008364;28;19924;-74
2023/04/12 12:51:07;;;;;;;;;;;10.80;99.90;;;;;;5029295;28;19940;-75
2023/04/12 12:53:34;;;;;;;;;;;10.90;99.90;;;;;;5032067;28;19933;-75
2023/04/12 12:56:01;;;;;;;;;;;11.00;99.90;;;;;;5029259;28;19956;-74
2023/04/12 12:58:28;;;;;;;;;;;11.00;99.90;;;;;;5027558;28;19932;-74
2023/04/12 13:00:55;;;;;;;;;;;11.10;99.90;;;;;;5031593;28;20387;-75
2023/04/12 13:03:23;;;;;;;;;;;11.20;99.90;;;;;;5035673;28;19968;-74
2023/04/12 13:05:50;;;;;;;;;;;11.30;99.90;;;;;;5027055;28;20256;-74
2023/04/12 13:08:17;;;;;;;;;;;11.30;99.90;;;;;;5013202;28;19932;-73
2023/04/12 13:10:44;;;;;;;;;;;11.40;99.90;;;;;;5017212;28;19975;-74
2023/04/12 13:13:11;;;;;;;;;;;11.50;99.90;;;;;;5015387;28;20063;-73
2023/04/12 13:15:38;;;;;;;;;;;11.50;99.90;;;;;;5020135;28;19972;-73
2023/04/12 13:18:05;;;;;;;;;;;11.50;99.90;;;;;;5029689;28;19951;-74
2023/04/12 13:20:33;;;;;;;;;;;11.60;99.90;;;;;;5008248;22;19930;-89
2023/04/12 13:23:00;;;;;;;;;;;11.60;99.90;;;;;;4999334;28;20012;-88
2023/04/12 13:25:27;;;;;;;;;;;11.70;99.90;;;;;;4998036;28;20024;-89
2023/04/12 13:27:54;;;;;;;;;;;11.70;99.90;;;;;;5003056;28;19933;-86
2023/04/12 13:30:21;;;;;;;;;;;11.70;99.90;;;;;;5004292;28;20012;-89
2023/04/12 13:32:48;;;;;;;;;;;11.70;99.90;;;;;;4998312;28;19930;-89
2023/04/12 13:35:15;;;;;;;;;;;11.70;99.90;;;;;;5011243;28;19929;-87
2023/04/12 13:37:43;;;;;;;;;;;11.70;99.90;;;;;;5015236;28;19926;-89
2023/04/12 13:40:10;;;;;;;;;;;11.70;99.90;;;;;;5013036;28;19925;-90
2023/04/12 13:42:37;;;;;;;;;;;11.70;99.90;;;;;;5007838;28;20319;-88
2023/04/12 13:45:04;;;;;;;;;;;11.80;99.90;;;;;;5016715;28;20009;-92
2023/04/12 13:47:32;;;;;;;;;;;11.80;99.90;;;;;;5031287;28;20268;-92
2023/04/12 13:50:00;;;;;;;;;;;11.80;99.90;;;;;;5036661;28;20024;-89
2023/04/12 13:52:27;;;;;;;;;;;11.80;99.90;;;;;;5020929;28;19925;-88
2023/04/12 13:54:55;;;;;;;;;;;11.80;99.90;;;;;;5012140;28;19953;-89
2023/04/12 13:57:22;;;;;;;;;;;11.80;99.90;;;;;;5013225;28;19929;-89
2023/04/12 13:59:48;;;;;;;;;;;11.80;99.90;;;;;;5006278;28;19934;-89
2023/04/12 14:02:15;;;;;;;;;;;11.80;99.90;;;;;;5006784;28;20145;-89
2023/04/12 14:04:49;;;;;;;;;;;11.90;99.90;;;;;;5016385;28;20060;-89
2023/04/12 14:07:16;;;;;;;;;;;11.90;99.90;;;;;;5004798;28;19925;-90
2023/04/12 14:09:43;;;;;;;;;;;11.90;99.90;;;;;;5011435;28;19968;-89
2023/04/12 14:12:11;;;;;;;;;;;11.90;99.90;;;;;;5008275;28;19984;-87
2023/04/12 14:14:38;;;;;;;;;;;11.90;99.90;;;;;;5013927;28;19925;-90
2023/04/12 14:17:06;;;;;;;;;;;11.90;99.90;;;;;;5007863;28;19960;-88
2023/04/12 14:19:33;;;;;;;;;;;11.90;99.90;;;;;;5011839;28;19993;-87
2023/04/12 14:22:01;;;;;;;;;;;12.00;99.90;;;;;;5013621;28;20359;-88
2023/04/12 14:24:28;;;;;;;;;;;11.90;99.90;;;;;;5009371;28;20028;-87
2023/04/12 14:26:56;;;;;;;;;;;12.00;99.90;;;;;;5006185;28;19932;-89
2023/04/12 14:29:24;;;;;;;;;;;11.90;99.90;;;;;;5010306;28;19937;-88
2023/04/12 14:31:51;;;;;;;;;;;11.90;99.90;;;;;;5015531;28;19941;-88
2023/04/12 14:34:17;;;;;;;;;;;11.90;99.90;;;;;;5006808;28;19933;-89
2023/04/12 14:36:44;;;;;;;;;;;11.90;99.90;;;;;;5012682;28;20042;-88
2023/04/12 14:39:11;;;;;;;;;;;12.00;99.90;;;;;;5009314;28;19984;-88